上海/浦東 の空港の天気 - METARとTAF

上海浦東国際空港 ( ZSPD / PVG ) - 中国 上海市
飛行場実況気象(Metar)
観測時間08/14 04:00 CST (08/13 20:00 UTC)
風向・風速南 3m/s
視程10km以上
天気現象
なし
気温27℃
湿度94%
気圧1005hPa
METARZSPD 132000Z 17003MPS CAVOK 27/26 Q1005 NOSIG
過去の天気等 Google飛行場航空写真 Wunderground天気予報

過去48時間のMETAR

飛行場予報(TAF)
発表時間: 8/13 23:02 CST (8/13 15:02 UTC)
予報対象時間: 14日2時 CST ~ 15日2時 CST
風向・風速南 4m/s
視程6000m
全天の8割程度の雲 雲底高度 610m
TAF ZSPD 131502Z 1318/1418 17004MPS 6000 BKN020 TX39/1406Z TN29/1320Z